Time;durP1;ratioP1;P1;durP2;ratioP2;P2;SDS_P1;SDS_P2;PMS_P1;PMS_P2;Temp;Humidity;BMP_temperature;BMP_pressure;BME280_temperature;BME280_humidity;BME280_pressure;Samples;Min_cycle;Max_cycle;Signal;HPM_P1;HPM_P2
2022/09/04 00:08:10;;;;;;;2.37;1.20;;;;;;;14.48;100.00;97786.16;18563901;32;20064;-61
2022/09/04 00:19:03;;;;;;;2.80;0.95;;;;;;;14.41;100.00;97791.94;18566797;32;20128;-61
2022/09/04 00:29:51;;;;;;;2.05;1.05;;;;;;;14.37;100.00;97799.88;18236050;32;20419;-60
2022/09/04 00:39:59;;;;;;;1.27;1.00;;;;;;;14.36;100.00;97800.16;17926669;33;20074;-60
2022/09/04 00:50:53;;;;;;;2.97;1.30;;;;;;;14.27;100.00;97801.94;17926313;33;20091;-61
2022/09/04 01:00:58;;;;;;;1.95;1.00;;;;;;;14.20;100.00;97800.38;18054169;32;20077;-60
2022/09/04 01:11:07;;;;;;;5.68;1.00;;;;;;;14.19;100.00;97812.34;18345953;32;20089;-61
2022/09/04 01:21:15;;;;;;;1.23;0.93;;;;;;;14.20;100.00;97811.25;18563203;32;20109;-61
2022/09/04 01:31:40;;;;;;;0.98;0.80;;;;;;;14.17;100.00;97817.25;18562450;32;20338;-60
2022/09/04 01:41:52;;;;;;;1.20;0.95;;;;;;;14.06;100.00;97819.28;18562413;32;20044;-61
2022/09/04 01:52:07;;;;;;;1.00;0.70;;;;;;;14.03;100.00;97824.47;18554918;32;20373;-60
2022/09/04 02:02:52;;;;;;;0.95;0.60;;;;;;;14.02;100.00;97822.88;18547458;32;20057;-61
2022/09/04 02:13:23;;;;;;;1.40;0.80;;;;;;;14.00;100.00;97831.31;18547022;32;20425;-61
2022/09/04 02:23:36;;;;;;;1.17;0.80;;;;;;;13.98;100.00;97838.16;18567185;32;20151;-61
2022/09/04 02:34:13;;;;;;;1.08;0.47;;;;;;;13.98;100.00;97832.72;18573395;32;20432;-61
2022/09/04 02:44:54;;;;;;;4.28;1.05;;;;;;;13.97;100.00;97836.53;18305849;32;20073;-61
2022/09/04 02:55:17;;;;;;;2.33;0.90;;;;;;;13.92;100.00;97837.37;18055065;32;20254;-61
2022/09/04 03:05:24;;;;;;;1.00;0.80;;;;;;;13.83;100.00;97831.75;18054963;32;20110;-61
2022/09/04 03:15:49;;;;;;;1.02;0.75;;;;;;;13.73;100.00;97840.00;18120783;32;20111;-60
2022/09/04 03:26:06;;;;;;;;;;;;;;;13.64;100.00;97834.38;18337750;32;20064;-60
2022/09/04 03:36:20;;;;;;;1.17;0.95;;;;;;;13.53;100.00;97839.09;18563640;32;20276;-60
2022/09/04 03:46:34;;;;;;;2.13;0.97;;;;;;;13.49;100.00;97848.12;18569154;32;20068;-60
2022/09/04 03:57:18;;;;;;;2.47;1.67;;;;;;;13.46;100.00;97848.69;18568147;32;20120;-60
2022/09/04 04:07:21;;;;;;;2.15;1.33;;;;;;;13.39;100.00;97857.16;18567710;32;20064;-60
2022/09/04 04:17:44;;;;;;;2.15;1.27;;;;;;;13.39;100.00;97865.31;18567219;32;20379;-61
2022/09/04 04:28:19;;;;;;;2.60;1.50;;;;;;;13.43;100.00;97884.53;18566592;32;20396;-60
2022/09/04 04:38:38;;;;;;;1.60;1.40;;;;;;;13.52;100.00;97891.81;18565862;32;20076;-60
2022/09/04 04:48:55;;;;;;;1.60;1.45;;;;;;;13.59;100.00;97906.97;18565145;32;20060;-61
2022/09/04 04:59:19;;;;;;;1.70;1.50;;;;;;;13.57;100.00;97904.56;18564900;31;20102;-61
2022/09/04 05:09:46;;;;;;;1.90;1.43;;;;;;;13.50;100.00;97923.09;18564118;32;20052;-61
2022/09/04 05:20:26;;;;;;;2.00;1.73;;;;;;;13.44;100.00;97937.78;18563321;32;20365;-61
2022/09/04 05:31:26;;;;;;;4.15;1.42;;;;;;;13.45;100.00;97953.00;18541939;32;20424;-61
2022/09/04 05:41:56;;;;;;;3.25;1.30;;;;;;;13.50;100.00;97963.84;18295634;32;20375;-60
2022/09/04 05:52:01;;;;;;;2.03;0.93;;;;;;;13.64;100.00;97964.00;18294749;32;20362;-61
2022/09/04 06:02:46;;;;;;;2.12;1.05;;;;;;;13.80;100.00;97983.72;18294672;32;20073;-60
2022/09/04 06:13:14;;;;;;;2.05;1.30;;;;;;;14.02;100.00;97996.87;18543951;32;20109;-61
2022/09/04 06:23:24;;;;;;;1.40;1.30;;;;;;;14.47;100.00;98003.00;18554436;32;20069;-61
2022/09/04 06:33:35;;;;;;;2.90;1.60;;;;;;;14.87;100.00;98019.22;18554134;32;20064;-61
2022/09/04 06:43:51;;;;;;;3.67;2.47;;;;;;;15.21;100.00;98024.53;18545614;32;20068;-61
2022/09/04 06:54:09;;;;;;;3.75;2.97;;;;;;;15.68;100.00;98023.91;18544810;32;20093;-60
2022/09/04 07:04:33;;;;;;;4.12;3.40;;;;;;;16.18;100.00;98032.44;18559006;32;20441;-60
2022/09/04 07:14:46;;;;;;;5.97;3.43;;;;;;;16.58;100.00;98051.16;18571177;32;20061;-60
2022/09/04 07:25:04;;;;;;;2.80;2.50;;;;;;;17.18;100.00;98046.78;18570344;32;20445;-60
2022/09/04 07:35:17;;;;;;;3.90;3.22;;;;;;;17.61;100.00;98047.25;18569729;32;20346;-60
2022/09/04 07:45:33;;;;;;;3.90;3.50;;;;;;;18.18;100.00;98050.66;18569203;32;20083;-61
2022/09/04 07:55:39;;;;;;;3.55;3.10;;;;;;;18.69;100.00;98059.50;18568594;32;20206;-61
2022/09/04 08:06:04;;;;;;;3.62;2.83;;;;;;;18.99;100.00;98070.81;18568163;32;20074;-61
2022/09/04 08:16:17;;;;;;;3.40;2.87;;;;;;;18.85;100.00;98071.69;18566818;32;20056;-61
2022/09/04 08:26:48;;;;;;;4.50;3.63;;;;;;;19.23;100.00;98084.94;18540157;32;20063;-61
2022/09/04 08:37:38;;;;;;;5.87;3.60;;;;;;;19.56;100.00;98092.78;18565954;32;20052;-61
2022/09/04 08:48:08;;;;;;;3.47;2.80;;;;;;;19.89;100.00;98100.63;18486059;32;20049;-61
2022/09/04 08:58:48;;;;;;;4.80;3.15;;;;;;;20.19;100.00;98109.03;18499703;32;20075;-61
2022/09/04 09:09:38;;;;;;;2.87;2.45;;;;;;;20.44;98.67;98112.09;18492367;32;20049;-60
2022/09/04 09:19:46;;;;;;;4.40;3.47;;;;;;;20.84;96.30;98122.91;18484210;32;20400;-61
2022/09/04 09:30:15;;;;;;;4.32;3.35;;;;;;;21.44;91.11;98125.78;18483081;32;20408;-61
2022/09/04 09:40:59;;;;;;;5.45;3.40;;;;;;;21.34;89.36;98124.22;18482797;32;20053;-61
2022/09/04 09:51:39;;;;;;;6.35;2.97;;;;;;;21.77;86.91;98106.69;18496502;32;20441;-62
2022/09/04 10:02:08;;;;;;;4.50;2.85;;;;;;;22.12;89.31;98098.19;18345169;32;20111;-61
2022/09/04 10:12:33;;;;;;;3.83;2.70;;;;;;;22.43;82.05;98107.19;18358584;32;20069;-61
2022/09/04 10:23:35;;;;;;;3.47;2.85;;;;;;;22.89;86.13;98108.03;18357619;32;20109;-61
2022/09/04 10:34:22;;;;;;;3.03;2.55;;;;;;;23.20;78.44;98101.25;18208936;32;20077;-61
2022/09/04 10:44:46;;;;;;;3.03;2.10;;;;;;;23.42;72.36;98093.66;18300126;32;20093;-62
2022/09/04 10:54:53;;;;;;;3.28;2.10;;;;;;;23.63;70.66;98086.06;18304745;32;20173;-61
2022/09/04 11:05:14;;;;;;;2.87;2.22;;;;;;;23.96;73.23;98082.34;18435815;32;20052;-62
2022/09/04 11:15:22;;;;;;;3.35;1.95;;;;;;;24.30;70.69;98084.91;18506121;32;20485;-61
2022/09/04 11:26:12;;;;;;;2.75;1.92;;;;;;;24.59;62.92;98086.50;18505428;32;20422;-61
2022/09/04 11:36:49;;;;;;;2.35;1.67;;;;;;;24.98;64.73;98089.56;18491194;32;20057;-62
2022/09/04 11:47:07;;;;;;;1.80;1.33;;;;;;;25.33;63.05;98079.75;18477234;32;20042;-62
2022/09/04 11:57:14;;;;;;;2.78;1.60;;;;;;;25.45;60.78;98070.53;18487983;32;20045;-62
2022/09/04 12:08:06;;;;;;;1.48;1.30;;;;;;;25.92;54.79;98083.47;18503114;32;20057;-62
2022/09/04 12:18:33;;;;;;;2.10;1.33;;;;;;;26.20;53.64;98071.44;18237236;32;20071;-62
2022/09/04 12:28:51;;;;;;;2.22;1.40;;;;;;;26.58;61.04;98078.13;18174306;32;20075;-62
2022/09/04 12:39:14;;;;;;;2.10;1.40;;;;;;;26.88;62.59;98077.53;18173987;32;20448;-62
2022/09/04 12:49:45;;;;;;;1.55;1.17;;;;;;;26.93;57.50;98068.91;18186736;32;20091;-62
2022/09/04 13:00:12;;;;;;;1.90;1.37;;;;;;;27.31;52.86;98064.37;18253567;32;20081;-61
2022/09/04 13:10:32;;;;;;;1.95;1.48;;;;;;;27.45;42.80;98074.13;18361343;32;20073;-62
2022/09/04 13:21:08;;;;;;;2.00;1.40;;;;;;;28.00;50.76;98063.44;18362725;32;20080;-61
2022/09/04 13:31:44;;;;;;;2.10;1.27;;;;;;;28.52;51.79;98068.44;18158292;32;20071;-62
2022/09/04 13:42:12;;;;;;;1.92;1.50;;;;;;;28.68;46.43;98074.63;18170305;32;20543;-62
2022/09/04 13:52:39;;;;;;;1.83;1.40;;;;;;;28.70;49.74;98061.12;18188746;32;20066;-61
2022/09/04 14:02:43;;;;;;;3.22;1.92;;;;;;;29.02;54.00;98057.81;18300249;32;20364;-62
2022/09/04 14:13:05;;;;;;;1.95;1.70;;;;;;;29.10;50.52;98061.47;18431582;32;20061;-61
2022/09/04 14:23:07;;;;;;;2.33;1.50;;;;;;;28.70;49.67;98052.75;18430802;32;20057;-62
2022/09/04 14:33:14;;;;;;;4.05;1.40;;;;;;;28.04;42.24;98052.38;18431063;32;20046;-62
2022/09/04 14:44:02;;;;;;;2.30;1.62;;;;;;;28.08;42.69;98042.13;18430592;32;20430;-62
2022/09/04 14:54:08;;;;;;;2.28;1.75;;;;;;;27.32;49.44;98040.97;18461239;32;20065;-62
2022/09/04 15:04:22;;;;;;;1.83;1.48;;;;;;;26.84;58.46;98027.50;18479945;32;20052;-62
2022/09/04 15:14:35;;;;;;;2.78;1.87;;;;;;;26.24;58.76;98024.38;18494068;32;20049;-61
2022/09/04 15:24:49;;;;;;;2.65;1.45;;;;;;;25.93;54.31;98015.84;18292201;32;20132;-62
2022/09/04 15:35:21;;;;;;;1.60;1.50;;;;;;;25.79;58.26;98009.97;18301477;32;20084;-62
2022/09/04 15:45:52;;;;;;;1.90;1.47;;;;;;;25.33;58.66;98003.06;18302857;32;20096;-61
2022/09/04 15:56:22;;;;;;;1.90;1.70;;;;;;;24.80;61.27;98008.06;18483587;32;20046;-61
2022/09/04 16:06:33;;;;;;;2.62;1.65;;;;;;;24.36;64.46;97995.06;18503254;32;20049;-61
2022/09/04 16:16:44;;;;;;;3.92;1.25;;;;;;;24.03;67.31;97980.34;18503055;32;20064;-62
2022/09/04 16:26:51;;;;;;;2.70;1.37;;;;;;;23.80;69.33;97963.53;18364079;32;20132;-61
2022/09/04 16:37:20;;;;;;;2.45;1.80;;;;;;;23.54;72.12;97971.41;18350517;32;20066;-61
2022/09/04 16:47:39;;;;;;;2.55;1.87;;;;;;;23.00;74.84;97981.56;18349938;32;20441;-61
2022/09/04 16:58:06;;;;;;;1.73;1.62;;;;;;;22.61;77.13;97976.38;18481578;32;20061;-62
2022/09/04 17:08:14;;;;;;;2.70;1.70;;;;;;;22.25;78.16;97972.34;18484892;32;20058;-62
2022/09/04 17:18:23;;;;;;;2.03;1.50;;;;;;;21.93;79.69;97968.47;18492195;32;20500;-62
2022/09/04 17:28:34;;;;;;;3.17;1.48;;;;;;;21.59;81.04;97971.16;18498331;32;20065;-61
2022/09/04 17:39:16;;;;;;;3.10;1.50;;;;;;;21.23;81.69;97975.25;18497529;32;20097;-61
2022/09/04 17:49:44;;;;;;;4.45;1.50;;;;;;;20.83;85.36;97972.87;18484671;32;20079;-61
2022/09/04 18:00:08;;;;;;;2.00;1.40;;;;;;;20.45;86.32;97973.66;18483157;32;20056;-62
2022/09/04 18:10:34;;;;;;;6.07;1.80;;;;;;;20.11;88.60;97983.56;18496577;32;20052;-61
2022/09/04 18:20:44;;;;;;;2.87;1.83;;;;;;;19.85;91.52;97991.81;18481972;32;20093;-61
2022/09/04 18:31:03;;;;;;;3.10;1.98;;;;;;;19.53;92.06;97993.84;18481255;32;20080;-61
2022/09/04 18:41:35;;;;;;;5.00;3.60;;;;;;;19.25;92.92;98002.38;18483484;32;20106;-62
2022/09/04 18:52:03;;;;;;;3.78;2.65;;;;;;;19.00;94.50;98001.19;18480446;32;20387;-61
2022/09/04 19:02:24;;;;;;;2.00;1.83;;;;;;;18.78;96.13;98008.31;18496763;32;20411;-62
2022/09/04 19:12:39;;;;;;;3.25;1.67;;;;;;;18.56;96.96;98007.25;18500319;32;20057;-62
2022/09/04 19:22:56;;;;;;;3.10;2.05;;;;;;;18.37;98.52;98014.88;18505757;32;20079;-61
2022/09/04 19:33:22;;;;;;;3.17;2.10;;;;;;;18.16;99.14;98020.88;18491523;32;20072;-62
2022/09/04 19:43:59;;;;;;;4.00;2.30;;;;;;;17.96;100.00;98013.94;18504980;32;20049;-62
2022/09/04 19:54:38;;;;;;;3.40;2.22;;;;;;;17.77;100.00;98027.75;18503539;32;20060;-62
2022/09/04 20:04:46;;;;;;;2.92;2.00;;;;;;;17.65;100.00;98033.78;18496703;32;20053;-61
2022/09/04 20:15:11;;;;;;;3.72;1.73;;;;;;;17.45;100.00;98032.28;18502224;32;20058;-61
2022/09/04 20:25:32;;;;;;;4.03;2.00;;;;;;;17.33;100.00;98032.81;18502280;32;20467;-62
2022/09/04 20:35:41;;;;;;;3.87;1.77;;;;;;;17.18;100.00;98046.78;18501560;32;20079;-61
2022/09/04 20:46:07;;;;;;;4.47;1.83;;;;;;;17.06;100.00;98058.22;18500802;32;20081;-61
2022/09/04 20:56:58;;;;;;;2.30;1.80;;;;;;;16.94;100.00;98067.72;18478246;32;20353;-62
2022/09/04 21:08:05;;;;;;;3.37;1.67;;;;;;;16.81;100.00;98084.88;18499285;32;20068;-62
2022/09/04 21:18:21;;;;;;;2.45;1.85;;;;;;;16.70;100.00;98092.44;18498996;32;20083;-62
2022/09/04 21:28:56;;;;;;;3.55;2.05;;;;;;;16.60;100.00;98085.22;18499538;32;20041;-61
2022/09/04 21:39:47;;;;;;;3.12;2.17;;;;;;;16.48;100.00;98071.25;18497430;32;20102;-61
2022/09/04 21:50:08;;;;;;;2.03;1.80;;;;;;;16.38;100.00;98096.78;18497071;32;20425;-61
2022/09/04 22:00:23;;;;;;;3.85;2.30;;;;;;;16.30;100.00;98102.13;18496324;32;20083;-61
2022/09/04 22:10:48;;;;;;;;;;;;;;;16.18;100.00;98097.91;18295036;32;20080;-61
2022/09/04 22:21:24;;;;;;;2.05;1.60;;;;;;;16.06;100.00;98103.00;18281814;32;19965;-61
2022/09/04 22:31:48;;;;;;;2.40;1.65;;;;;;;15.96;100.00;98111.34;18294054;32;20077;-61
2022/09/04 22:42:24;;;;;;;2.17;1.87;;;;;;;15.87;100.00;98117.47;18350377;32;20113;-61
2022/09/04 22:52:57;;;;;;;3.33;1.70;;;;;;;15.77;100.00;98136.63;18507562;32;20049;-61
2022/09/04 23:03:08;;;;;;;2.33;2.03;;;;;;;15.68;100.00;98141.16;18493272;32;20106;-62
2022/09/04 23:13:33;;;;;;;5.30;1.98;;;;;;;15.66;100.00;98138.69;18506701;32;20093;-62
2022/09/04 23:24:52;;;;;;;3.80;1.80;;;;;;;15.57;100.00;98138.53;18506065;32;20129;-61
2022/09/04 23:35:32;;;;;;;3.62;2.10;;;;;;;15.48;100.00;98143.00;18240210;32;20124;-61
2022/09/04 23:45:58;;;;;;;4.35;1.77;;;;;;;15.42;100.00;98144.16;18239787;32;20082;-61
2022/09/04 23:56:15;;;;;;;2.00;1.65;;;;;;;15.37;100.00;98141.50;18225691;32;20122;-61
